Time;durP1;ratioP1;P1;durP2;ratioP2;P2;SDS_P1;SDS_P2;PMS_P1;PMS_P2;Temp;Humidity;BMP_temperature;BMP_pressure;BME280_temperature;BME280_humidity;BME280_pressure;Samples;Min_cycle;Max_cycle;Signal;HPM_P1;HPM_P2
2022/03/27 00:00:23;;;;;;;;;;;;;;;8.49;35.42;93748.75;2065018;69;20564;-75
2022/03/27 00:02:48;;;;;;;;;;;;;;;8.50;34.80;93746.69;2052531;70;20076;-76
2022/03/27 00:05:14;;;;;;;;;;;;;;;8.55;34.48;93749.25;2046310;69;20074;-76
2022/03/27 00:07:41;;;;;;;;;;;;;;;8.53;34.65;93746.28;2052281;70;20150;-76
2022/03/27 00:10:06;;;;;;;;;;;;;;;8.40;34.88;93752.94;2052211;70;20138;-75
2022/03/27 00:12:32;;;;;;;;;;;;;;;8.31;35.69;93744.38;2052092;70;20142;-75
2022/03/27 00:14:58;;;;;;;;;;;;;;;8.61;33.85;93754.63;2052284;70;20078;-77
2022/03/27 00:17:23;;;;;;;;;;;;;;;8.34;35.75;93755.19;2064972;69;20094;-74
2022/03/27 00:19:49;;;;;;;;;;;;;;;8.18;35.80;93756.59;2065161;69;20047;-74
2022/03/27 00:22:15;;;;;;;;;;;;;;;8.17;36.20;93757.91;2052470;70;20049;-75
2022/03/27 00:24:40;;;;;;;;;;;;;;;8.23;35.83;93758.44;2065217;69;20490;-75
2022/03/27 00:27:06;;;;;;;;;;;;;;;8.13;36.15;93763.91;2062579;69;20055;-74
2022/03/27 00:29:31;;;;;;;;;;;;;;;8.13;35.61;93754.75;2065337;69;20046;-74
2022/03/27 00:31:57;;;;;;;;;;;;;;;8.23;35.95;93754.88;2052280;70;20074;-75
2022/03/27 00:34:23;;;;;;;;;;;;;;;7.73;37.36;93758.31;2052316;70;20047;-76
2022/03/27 00:36:49;;;;;;;;;;;;;;;7.90;37.06;93768.91;2065271;69;20553;-75
2022/03/27 00:39:14;;;;;;;;;;;;;;;7.92;36.86;93763.47;2052087;70;20071;-75
2022/03/27 00:41:40;;;;;;;;;;;;;;;7.72;36.37;93756.09;2052421;70;20050;-74
2022/03/27 00:44:06;;;;;;;;;;;;;;;7.80;37.76;93765.97;2051979;70;20051;-76
2022/03/27 00:46:31;;;;;;;;;;;;;;;7.81;37.19;93764.63;2051715;70;20102;-75
2022/03/27 00:48:57;;;;;;;;;;;;;;;7.64;37.35;93764.50;2052190;70;20107;-75
2022/03/27 00:51:22;;;;;;;;;;;;;;;7.54;38.07;93769.97;2064737;69;20165;-76
2022/03/27 00:53:48;;;;;;;;;;;;;;;7.87;35.10;93770.03;2052242;69;20168;-76
2022/03/27 00:56:14;;;;;;;;;;;;;;;7.53;37.98;93776.91;2052047;70;20498;-76
2022/03/27 00:58:40;;;;;;;;;;;;;;;7.48;37.60;93774.31;2064761;69;20102;-75
2022/03/27 01:01:16;;;;;;;;;;;;;;;7.38;38.77;93774.88;2051851;70;20059;-75
2022/03/27 01:03:43;;;;;;;;;;;;;;;7.27;38.09;93775.28;2051954;70;20432;-75
2022/03/27 01:06:17;;;;;;;;;;;;;;;7.33;38.55;93770.25;2064761;69;20091;-75
2022/03/27 01:11:26;;;;;;;;;;;;;;;7.20;38.88;93776.06;2064842;69;20424;-76
2022/03/27 01:13:56;;;;;;;;;;;;;;;7.15;39.56;93768.59;2051636;70;20058;-76
2022/03/27 01:16:40;;;;;;;;;;;;;;;6.95;40.36;93770.28;2064995;69;20061;-75
2022/03/27 01:19:06;;;;;;;;;;;;;;;6.96;40.09;93765.44;2061899;69;20061;-75
2022/03/27 01:21:34;;;;;;;;;;;;;;;7.26;37.00;93775.84;2063623;69;20058;-75
2022/03/27 01:23:59;;;;;;;;;;;;;;;7.10;39.16;93775.13;2055406;69;20050;-74
2022/03/27 01:26:25;;;;;;;;;;;;;;;7.14;39.28;93767.81;2068260;69;20069;-75
2022/03/27 01:28:51;;;;;;;;;;;;;;;7.02;39.14;93766.75;2055564;69;20050;-76
2022/03/27 01:31:18;;;;;;;;;;;;;;;7.19;38.62;93771.75;2055642;70;20058;-75
2022/03/27 01:33:44;;;;;;;;;;;;;;;7.17;37.68;93768.03;2055642;70;20057;-75
2022/03/27 01:36:09;;;;;;;;;;;;;;;7.12;36.73;93764.13;2055483;70;20062;-75
2022/03/27 01:38:35;;;;;;;;;;;;;;;6.92;39.31;93760.22;2068656;69;20516;-75
2022/03/27 01:41:00;;;;;;;;;;;;;;;7.19;38.02;93762.59;2068372;69;20054;-75
2022/03/27 01:43:26;;;;;;;;;;;;;;;6.95;38.66;93759.09;2055136;70;20054;-75
2022/03/27 01:45:51;;;;;;;;;;;;;;;6.77;39.13;93765.81;2053827;70;20584;-75
2022/03/27 01:48:16;;;;;;;;;;;;;;;6.92;38.99;93765.06;2052308;70;20120;-75
2022/03/27 01:50:42;;;;;;;;;;;;;;;6.79;39.40;93771.63;2052137;70;20054;-75
2022/03/27 01:53:07;;;;;;;;;;;;;;;6.84;38.74;93770.69;2052348;70;20046;-74
2022/03/27 01:55:34;;;;;;;;;;;;;;;6.80;38.97;93767.50;2052247;70;20072;-74
2022/03/27 01:57:59;;;;;;;;;;;;;;;6.86;37.80;93773.66;2062270;69;20047;-75
2022/03/27 02:00:25;;;;;;;;;;;;;;;7.12;36.87;93764.13;2051889;70;20104;-75
2022/03/27 02:02:52;;;;;;;;;;;;;;;6.66;39.17;93769.75;2052109;70;20052;-74
2022/03/27 02:05:18;;;;;;;;;;;;;;;6.65;38.50;93764.72;2052072;70;20050;-76
2022/03/27 02:07:45;;;;;;;;;;;;;;;6.53;39.38;93773.47;2065066;69;20446;-76
2022/03/27 02:10:11;;;;;;;;;;;;;;;6.47;39.58;93769.38;2052096;70;20046;-76
2022/03/27 02:12:36;;;;;;;;;;;;;;;6.49;39.94;93769.56;2064855;69;20038;-76
2022/03/27 02:15:06;;;;;;;;;;;;;;;6.47;39.61;93772.19;2052192;70;20054;-77
2022/03/27 02:17:31;;;;;;;;;;;;;;;6.44;39.11;93773.28;2065275;69;20506;-77
2022/03/27 02:19:58;;;;;;;;;;;;;;;6.29;39.34;93768.44;2065177;69;20054;-77
2022/03/27 02:22:23;;;;;;;;;;;;;;;6.35;39.85;93774.59;2065307;69;20055;-74
2022/03/27 02:24:49;;;;;;;;;;;;;;;6.33;39.59;93772.34;2052495;70;20053;-77
2022/03/27 02:27:15;;;;;;;;;;;;;;;6.17;40.49;93775.69;2052293;70;20058;-76
2022/03/27 02:29:40;;;;;;;;;;;;;;;6.16;41.29;93774.94;2052152;70;20042;-77
2022/03/27 02:32:08;;;;;;;;;;;;;;;5.98;40.61;93773.22;2068031;69;20090;-77
2022/03/27 02:34:34;;;;;;;;;;;;;;;6.10;40.30;93774.38;2052260;69;20624;-77
2022/03/27 02:36:59;;;;;;;;;;;;;;;5.93;40.54;93774.13;2065241;69;20137;-77
2022/03/27 02:39:25;;;;;;;;;;;;;;;6.09;40.78;93773.63;2052259;70;20051;-77
2022/03/27 02:41:50;;;;;;;;;;;;;;;6.13;40.63;93780.88;2052344;70;20107;-77
2022/03/27 02:44:16;;;;;;;;;;;;;;;6.31;39.50;93768.59;2052090;70;20051;-77
2022/03/27 02:46:42;;;;;;;;;;;;;;;6.11;40.43;93779.41;2052241;69;20056;-77
2022/03/27 02:49:08;;;;;;;;;;;;;;;6.13;39.37;93767.66;2052237;70;20097;-76
2022/03/27 02:51:34;;;;;;;;;;;;;;;6.05;40.58;93776.03;2067943;69;20081;-77
2022/03/27 02:53:59;;;;;;;;;;;;;;;6.05;39.87;93770.44;2065190;69;20050;-77
2022/03/27 02:56:25;;;;;;;;;;;;;;;6.05;39.62;93775.28;2052189;70;20475;-77
2022/03/27 02:58:50;;;;;;;;;;;;;;;6.05;40.17;93775.28;2051975;69;20504;-77
2022/03/27 03:01:16;;;;;;;;;;;;;;;6.00;39.22;93774.16;2052343;70;20403;-77
2022/03/27 03:03:42;;;;;;;;;;;;;;;5.78;41.00;93781.16;2065185;69;20047;-77
2022/03/27 03:06:08;;;;;;;;;;;;;;;5.75;40.98;93779.44;2052197;70;20086;-77
2022/03/27 03:08:36;;;;;;;;;;;;;;;6.03;38.84;93775.84;2052146;70;20086;-77
2022/03/27 03:11:01;;;;;;;;;;;;;;;5.77;40.62;93776.09;2065096;69;20063;-77
2022/03/27 03:13:27;;;;;;;;;;;;;;;5.88;40.07;93772.22;2067915;69;20116;-77
2022/03/27 03:15:54;;;;;;;;;;;;;;;5.76;40.97;93772.56;2052627;70;20055;-77
2022/03/27 03:18:19;;;;;;;;;;;;;;;5.77;40.51;93771.28;2052683;70;20058;-77
2022/03/27 03:20:45;;;;;;;;;;;;;;;5.91;39.52;93780.25;2052622;70;20050;-76
2022/03/27 03:23:11;;;;;;;;;;;;;;;5.56;41.38;93771.38;2065575;69;20514;-76
2022/03/27 03:25:38;;;;;;;;;;;;;;;5.71;41.61;93772.72;2065612;69;20058;-76
2022/03/27 03:28:05;;;;;;;;;;;;;;;5.58;40.56;93773.59;2052761;70;20692;-75
2022/03/27 03:30:30;;;;;;;;;;;;;;;5.34;42.74;93777.59;2052408;70;20058;-75
2022/03/27 03:32:56;;;;;;;;;;;;;;;5.48;42.11;93775.44;2052521;70;20485;-75
2022/03/27 03:35:21;;;;;;;;;;;;;;;5.35;42.15;93782.63;2068158;69;20050;-75
2022/03/27 03:37:47;;;;;;;;;;;;;;;5.48;41.79;93783.81;2065351;69;20560;-75
2022/03/27 03:40:14;;;;;;;;;;;;;;;5.47;40.83;93793.50;2052451;70;20051;-75
2022/03/27 03:42:39;;;;;;;;;;;;;;;5.43;42.43;93785.47;2052672;70;20050;-75
2022/03/27 03:45:05;;;;;;;;;;;;;;;5.69;40.14;93792.84;2052517;70;20050;-75
2022/03/27 03:47:32;;;;;;;;;;;;;;;5.56;40.56;93781.81;2065515;69;20090;-75
2022/03/27 03:49:58;;;;;;;;;;;;;;;5.43;40.14;93784.72;2052698;70;20434;-75
2022/03/27 03:52:23;;;;;;;;;;;;;;;6.00;37.61;93790.16;2065591;69;20070;-75
2022/03/27 03:54:49;;;;;;;;;;;;;;;5.89;38.31;93780.06;2052603;70;20116;-76
2022/03/27 03:57:16;;;;;;;;;;;;;;;5.80;37.55;93784.13;2052596;70;20062;-76
2022/03/27 03:59:41;;;;;;;;;;;;;;;5.76;38.54;93783.72;2052387;70;20059;-76
2022/03/27 04:02:08;;;;;;;;;;;;;;;5.96;38.39;93787.00;2065575;69;20050;-77
2022/03/27 04:04:34;;;;;;;;;;;;;;;5.62;39.41;93785.16;2065567;69;20046;-77
2022/03/27 04:07:00;;;;;;;;;;;;;;;5.81;38.10;93779.28;2065583;69;20061;-76
2022/03/27 04:09:26;;;;;;;;;;;;;;;5.86;37.24;93776.34;2052610;70;20050;-76
2022/03/27 04:11:52;;;;;;;;;;;;;;;5.94;37.62;93776.38;2052569;70;20054;-77
2022/03/27 04:14:17;;;;;;;;;;;;;;;5.78;39.03;93780.41;2052497;70;20050;-78
2022/03/27 04:16:43;;;;;;;;;;;;;;;5.94;38.07;93786.81;2052618;70;20134;-76
2022/03/27 04:19:09;;;;;;;;;;;;;;;5.57;39.95;93791.66;2052495;70;20055;-76
2022/03/27 04:21:34;;;;;;;;;;;;;;;5.60;38.84;93787.78;2068308;69;20437;-76
2022/03/27 04:23:59;;;;;;;;;;;;;;;5.61;38.77;93789.28;2065510;69;20055;-76
2022/03/27 04:26:25;;;;;;;;;;;;;;;5.62;38.94;93787.97;2052610;70;20054;-76
2022/03/27 04:28:50;;;;;;;;;;;;;;;5.49;39.43;93786.03;2065332;69;20495;-76
2022/03/27 04:31:18;;;;;;;;;;;;;;;5.57;38.75;93786.81;2068194;69;20051;-77
2022/03/27 04:33:43;;;;;;;;;;;;;;;5.58;39.04;93790.38;2052515;70;20055;-77
2022/03/27 04:36:09;;;;;;;;;;;;;;;5.33;40.17;93784.50;2065428;69;20403;-76
2022/03/27 04:38:34;;;;;;;;;;;;;;;5.39;39.81;93778.75;2052601;70;20077;-77
2022/03/27 04:41:00;;;;;;;;;;;;;;;5.32;40.76;93796.97;2062598;69;20517;-77
2022/03/27 04:43:27;;;;;;;;;;;;;;;5.52;39.81;93792.59;2065435;69;20089;-77
2022/03/27 04:45:52;;;;;;;;;;;;;;;5.40;40.40;93791.41;2052383;69;20096;-77
2022/03/27 04:48:18;;;;;;;;;;;;;;;5.48;39.82;93790.13;2052523;70;20059;-76
2022/03/27 04:50:44;;;;;;;;;;;;;;;5.22;40.59;93796.72;2052573;69;20059;-76
2022/03/27 04:53:10;;;;;;;;;;;;;;;5.32;40.31;93789.34;2065501;69;20057;-75
2022/03/27 04:55:35;;;;;;;;;;;;;;;5.19;40.91;93802.66;2052454;70;20051;-76
2022/03/27 04:58:01;;;;;;;;;;;;;;;5.32;40.34;93797.72;2052478;70;20153;-76
2022/03/27 05:00:26;;;;;;;;;;;;;;;5.13;40.98;93799.25;2052331;70;20070;-76
2022/03/27 05:02:52;;;;;;;;;;;;;;;4.95;41.75;93810.13;2052435;70;20050;-76
2022/03/27 05:05:18;;;;;;;;;;;;;;;4.90;41.85;93810.25;2065371;69;20610;-76
2022/03/27 05:07:44;;;;;;;;;;;;;;;4.93;41.56;93821.09;2065543;69;20494;-76
2022/03/27 05:10:10;;;;;;;;;;;;;;;4.98;41.82;93805.50;2062723;69;20046;-77
2022/03/27 05:12:36;;;;;;;;;;;;;;;5.04;41.31;93811.66;2052476;70;20070;-77
2022/03/27 05:15:02;;;;;;;;;;;;;;;4.97;41.70;93806.78;2065365;69;20116;-77
2022/03/27 05:17:27;;;;;;;;;;;;;;;5.01;41.36;93810.72;2062586;69;20502;-77
2022/03/27 05:19:53;;;;;;;;;;;;;;;5.15;40.88;93811.38;2052494;70;20087;-77
2022/03/27 05:22:18;;;;;;;;;;;;;;;5.10;40.25;93809.47;2052530;70;20054;-76
2022/03/27 05:24:45;;;;;;;;;;;;;;;5.16;39.95;93810.06;2052449;69;20590;-77
2022/03/27 05:27:11;;;;;;;;;;;;;;;5.06;41.86;93814.66;2065359;69;20046;-76
2022/03/27 05:29:37;;;;;;;;;;;;;;;4.95;41.99;93810.13;2065244;69;20510;-76
2022/03/27 05:32:03;;;;;;;;;;;;;;;4.94;41.89;93808.63;2052378;70;20120;-76
2022/03/27 05:34:29;;;;;;;;;;;;;;;5.12;41.36;93806.88;2052375;70;20061;-76
2022/03/27 05:36:55;;;;;;;;;;;;;;;4.85;41.75;93812.66;2052460;70;20070;-77
2022/03/27 05:39:20;;;;;;;;;;;;;;;4.67;43.97;93804.50;2065294;69;20082;-77
2022/03/27 05:41:46;;;;;;;;;;;;;;;4.82;41.55;93805.38;2065300;69;20406;-77
2022/03/27 05:44:11;;;;;;;;;;;;;;;4.92;42.12;93813.28;2065324;69;20137;-76
2022/03/27 05:46:37;;;;;;;;;;;;;;;4.86;42.61;93807.84;2052372;70;20062;-77
2022/03/27 05:49:03;;;;;;;;;;;;;;;5.06;41.23;93812.63;2052469;70;20071;-76
2022/03/27 05:51:29;;;;;;;;;;;;;;;4.95;42.13;93818.50;2065297;69;20050;-77
2022/03/27 05:53:55;;;;;;;;;;;;;;;4.85;43.48;93817.47;2052327;69;20119;-76
2022/03/27 05:56:21;;;;;;;;;;;;;;;4.73;43.13;93817.03;2052314;70;20055;-76
2022/03/27 05:58:47;;;;;;;;;;;;;;;5.08;41.37;93814.84;2052160;69;20051;-76
2022/03/27 06:01:14;;;;;;;;;;;;;;;5.04;41.25;93811.66;2052384;70;20050;-76
2022/03/27 06:03:39;;;;;;;;;;;;;;;4.83;44.27;93825.66;2052457;70;20043;-78
2022/03/27 06:06:05;;;;;;;;;;;;;;;4.80;43.92;93821.16;2068023;69;20057;-76
2022/03/27 06:08:30;;;;;;;;;;;;;;;4.87;41.10;93820.50;2052520;70;20049;-75
2022/03/27 06:10:56;;;;;;;;;;;;;;;4.68;43.79;93825.56;2052320;70;20059;-76
2022/03/27 06:13:22;;;;;;;;;;;;;;;4.73;43.35;93821.88;2052257;70;20063;-76
2022/03/27 06:15:47;;;;;;;;;;;;;;;4.79;43.37;93828.78;2065095;69;20051;-78
2022/03/27 06:18:14;;;;;;;;;;;;;;;4.75;44.00;93828.38;2065102;69;20053;-78
2022/03/27 06:20:40;;;;;;;;;;;;;;;4.91;41.75;93832.06;2065155;69;20047;-77
2022/03/27 06:23:06;;;;;;;;;;;;;;;4.90;43.24;93836.13;2052212;70;20050;-77
2022/03/27 06:25:32;;;;;;;;;;;;;;;4.91;44.23;93831.31;2065187;69;20046;-75
2022/03/27 06:27:58;;;;;;;;;;;;;;;4.78;44.46;93832.88;2052224;70;20082;-76
2022/03/27 06:30:24;;;;;;;;;;;;;;;5.04;42.19;93837.56;2065123;69;20082;-76
2022/03/27 06:32:53;;;;;;;;;;;;;;;4.94;42.46;93841.38;2052215;70;20050;-76
2022/03/27 06:35:19;;;;;;;;;;;;;;;4.93;44.25;93837.09;2065246;69;20498;-76
2022/03/27 06:37:45;;;;;;;;;;;;;;;4.75;44.92;93839.53;2052381;70;20070;-77
2022/03/27 06:40:13;;;;;;;;;;;;;;;4.82;45.06;93840.91;2052325;70;20070;-77
2022/03/27 06:42:38;;;;;;;;;;;;;;;4.81;45.65;93840.19;2052412;70;20502;-77
2022/03/27 06:45:04;;;;;;;;;;;;;;;4.81;45.19;93833.81;2052124;70;20046;-78
2022/03/27 06:47:30;;;;;;;;;;;;;;;5.15;41.56;93836.50;2052295;70;20091;-77
2022/03/27 06:49:56;;;;;;;;;;;;;;;5.02;44.18;93836.59;2052448;70;20176;-77
2022/03/27 06:52:23;;;;;;;;;;;;;;;5.18;42.48;93831.84;2062850;69;20051;-77
2022/03/27 06:54:48;;;;;;;;;;;;;;;5.12;43.77;93831.25;2052653;70;20145;-76
2022/03/27 06:57:14;;;;;;;;;;;;;;;5.04;44.60;93836.78;2052651;70;20114;-77
2022/03/27 07:05:09;;;;;;;;;;;;;;;5.30;42.79;93830.25;2052755;70;20579;-76
2022/03/27 07:07:35;;;;;;;;;;;;;;;5.34;43.15;93830.66;2052735;70;20078;-77
2022/03/27 07:10:01;;;;;;;;;;;;;;;5.04;44.56;93834.75;2065587;69;20053;-76
2022/03/27 07:12:26;;;;;;;;;;;;;;;5.17;44.08;93825.53;2065544;69;20487;-76
2022/03/27 07:14:52;;;;;;;;;;;;;;;5.25;44.30;93829.13;2052579;70;20050;-75
2022/03/27 07:17:18;;;;;;;;;;;;;;;5.26;44.89;93829.84;2052680;70;20050;-75
2022/03/27 07:19:43;;;;;;;;;;;;;;;5.37;44.02;93826.03;2052386;69;20063;-74
2022/03/27 07:22:09;;;;;;;;;;;;;;;5.27;44.52;93823.75;2065590;69;20134;-75
2022/03/27 07:24:34;;;;;;;;;;;;;;;5.39;43.73;93826.22;2052547;70;20067;-75
2022/03/27 07:27:02;;;;;;;;;;;;;;;5.74;42.91;93822.66;2046514;70;20067;-75
2022/03/27 07:29:30;;;;;;;;;;;;;;;6.34;42.92;93826.97;2062702;69;20047;-76
2022/03/27 07:31:56;;;;;;;;;;;;;;;6.75;39.33;93821.63;2065556;69;20054;-76
2022/03/27 07:34:21;;;;;;;;;;;;;;;7.19;41.61;93824.94;2065565;69;20059;-76
2022/03/27 07:36:47;;;;;;;;;;;;;;;7.80;40.33;93822.03;2062745;69;20494;-76
2022/03/27 07:39:12;;;;;;;;;;;;;;;8.27;39.04;93816.97;2062695;69;20426;-76
2022/03/27 07:41:39;;;;;;;;;;;;;;;8.70;36.64;93815.03;2065515;69;20529;-76
2022/03/27 07:44:05;;;;;;;;;;;;;;;9.62;39.15;93818.53;2052464;70;20091;-76
2022/03/27 07:46:32;;;;;;;;;;;;;;;9.28;36.77;93810.81;2052621;69;20050;-76
2022/03/27 07:48:57;;;;;;;;;;;;;;;10.40;37.21;93811.44;2065530;69;20054;-76
2022/03/27 07:51:23;;;;;;;;;;;;;;;10.32;36.14;93812.88;2052590;70;20042;-76
2022/03/27 07:53:48;;;;;;;;;;;;;;;11.14;35.74;93817.88;2052506;69;20115;-77
2022/03/27 07:56:14;;;;;;;;;;;;;;;11.17;34.75;93811.03;2065522;69;20533;-76
2022/03/27 07:58:39;;;;;;;;;;;;;;;11.77;33.00;93809.81;2065573;69;20428;-77
2022/03/27 08:01:05;;;;;;;;;;;;;;;11.54;31.66;93802.50;2067871;69;20051;-76
2022/03/27 08:03:33;;;;;;;;;;;;;;;10.81;33.25;93797.72;2065436;69;20051;-77
2022/03/27 08:05:59;;;;;;;;;;;;;;;11.98;33.08;93803.63;2052486;70;20055;-76
2022/03/27 08:08:25;;;;;;;;;;;;;;;12.47;30.27;93799.41;2052460;70;20503;-77
2022/03/27 08:10:50;;;;;;;;;;;;;;;13.43;30.36;93801.16;2052426;70;20097;-78
2022/03/27 08:13:16;;;;;;;;;;;;;;;12.82;30.50;93796.19;2052446;69;20502;-77
2022/03/27 08:15:42;;;;;;;;;;;;;;;13.23;30.05;93799.75;2052365;70;20058;-78
2022/03/27 08:18:10;;;;;;;;;;;;;;;12.98;29.64;93797.31;2065392;69;20047;-75
2022/03/27 08:20:36;;;;;;;;;;;;;;;14.81;29.11;93791.69;2052673;70;20047;-78
2022/03/27 08:23:01;;;;;;;;;;;;;;;16.91;25.36;93795.47;2065268;69;20047;-76
2022/03/27 08:28:13;;;;;;;;;;;;;;;14.52;26.96;93783.47;2052575;70;20054;-76
2022/03/27 08:30:39;;;;;;;;;;;;;;;14.00;25.66;93778.69;2052405;70;20066;-75
2022/03/27 08:33:05;;;;;;;;;;;;;;;14.07;26.27;93777.75;2065454;69;20476;-79
2022/03/27 08:35:30;;;;;;;;;;;;;;;14.35;26.92;93763.94;2062702;69;20100;-77
2022/03/27 08:37:56;;;;;;;;;;;;;;;14.80;25.43;93775.28;2052746;70;20051;-80
2022/03/27 08:40:22;;;;;;;;;;;;;;;14.78;26.71;93770.22;2052424;69;20086;-78
2022/03/27 08:42:48;;;;;;;;;;;;;;;15.48;26.30;93764.53;2065422;69;20135;-79
2022/03/27 08:45:13;;;;;;;;;;;;;;;16.40;25.80;93761.34;2052409;70;20066;-78
2022/03/27 08:47:39;;;;;;;;;;;;;;;16.37;25.86;93761.84;2062592;69;20054;-78
2022/03/27 08:50:05;;;;;;;;;;;;;;;16.93;24.58;93755.00;2052443;70;20240;-78
2022/03/27 08:52:39;;;;;;;;;;;;;;;17.98;23.74;93756.19;2052530;70;20043;-76
2022/03/27 08:55:34;;;;;;;;;;;;;;;17.01;23.54;93755.44;2052578;70;20077;-77
2022/03/27 08:58:03;;;;;;;;;;;;;;;17.22;23.27;93758.00;2052652;69;20414;-78
2022/03/27 09:00:30;;;;;;;;;;;;;;;17.29;23.23;93756.22;2065088;69;20086;-77
2022/03/27 09:02:56;;;;;;;;;;;;;;;18.56;23.11;93749.06;2052495;70;20075;-76
2022/03/27 09:05:22;;;;;;;;;;;;;;;17.59;21.71;93747.78;2065415;69;20062;-76
2022/03/27 09:07:48;;;;;;;;;;;;;;;17.78;23.33;93747.38;2052451;70;20046;-76
2022/03/27 09:10:14;;;;;;;;;;;;;;;18.60;22.57;93743.56;2065268;69;20054;-77
2022/03/27 09:12:40;;;;;;;;;;;;;;;18.57;21.87;93741.97;2052244;70;20062;-77
2022/03/27 09:15:09;;;;;;;;;;;;;;;19.62;20.59;93739.66;2052217;70;20120;-76
2022/03/27 09:17:53;;;;;;;;;;;;;;;19.13;20.84;93733.88;2065438;69;20074;-76
2022/03/27 09:20:28;;;;;;;;;;;;;;;19.69;21.10;93729.97;2052602;70;20050;-75
2022/03/27 09:22:54;;;;;;;;;;;;;;;19.27;20.66;93728.81;2052406;70;20043;-75
2022/03/27 09:25:19;;;;;;;;;;;;;;;20.32;20.80;93729.03;2065500;69;20057;-76
2022/03/27 09:27:45;;;;;;;;;;;;;;;21.24;20.73;93730.50;2052463;70;20609;-76
2022/03/27 09:30:11;;;;;;;;;;;;;;;19.74;20.52;93723.03;2065110;69;20043;-76
2022/03/27 09:32:40;;;;;;;;;;;;;;;19.64;20.12;93719.03;2052413;70;20183;-76
2022/03/27 09:35:13;;;;;;;;;;;;;;;20.00;20.79;93711.28;2052277;70;20086;-78
2022/03/27 09:37:41;;;;;;;;;;;;;;;21.53;18.83;93720.09;2052396;70;20161;-75
2022/03/27 09:40:08;;;;;;;;;;;;;;;21.88;19.54;93715.63;2052246;70;20087;-75
2022/03/27 09:42:34;;;;;;;;;;;;;;;20.48;18.59;93706.09;2065211;69;20047;-75
2022/03/27 09:45:16;;;;;;;;;;;;;;;21.39;18.88;93711.72;2065095;69;20146;-75
2022/03/27 09:47:42;;;;;;;;;;;;;;;21.98;19.39;93701.63;2052306;70;20050;-75
2022/03/27 09:50:09;;;;;;;;;;;;;;;22.79;16.68;93701.44;2052273;70;20504;-75
2022/03/27 09:52:35;;;;;;;;;;;;;;;23.05;17.07;93695.81;2052230;70;20090;-77
2022/03/27 09:55:07;;;;;;;;;;;;;;;22.19;16.23;93695.22;2065227;69;20055;-77
2022/03/27 09:57:32;;;;;;;;;;;;;;;21.76;18.04;93681.50;2065118;69;20054;-74
2022/03/27 10:00:13;;;;;;;;;;;;;;;22.49;16.99;93689.00;2062217;69;20414;-74
2022/03/27 10:02:40;;;;;;;;;;;;;;;23.10;16.02;93679.41;2052346;70;20407;-75
2022/03/27 10:05:09;;;;;;;;;;;;;;;23.18;15.71;93676.03;2065432;69;20063;-75
2022/03/27 10:07:36;;;;;;;;;;;;;;;23.55;15.42;93675.69;2052209;70;20484;-76
2022/03/27 10:10:02;;;;;;;;;;;;;;;24.31;15.00;93671.94;2052223;70;20077;-76
2022/03/27 10:12:29;;;;;;;;;;;;;;;24.41;14.44;93672.19;2065186;69;20042;-77
2022/03/27 10:14:59;;;;;;;;;;;;;;;24.57;14.34;93666.84;2064967;69;20075;-76
2022/03/27 10:17:26;;;;;;;;;;;;;;;24.44;13.87;93661.50;2052211;69;20050;-77
2022/03/27 10:19:54;;;;;;;;;;;;;;;24.32;13.02;93668.38;2052180;70;20481;-75
2022/03/27 10:22:21;;;;;;;;;;;;;;;23.68;14.04;93653.78;2064965;69;20112;-77
2022/03/27 10:24:53;;;;;;;;;;;;;;;24.27;13.76;93660.31;2052002;70;20082;-75
2022/03/27 10:27:19;;;;;;;;;;;;;;;23.76;13.91;93651.13;2052141;70;20086;-75
2022/03/27 10:29:45;;;;;;;;;;;;;;;24.71;14.64;93652.06;2052008;70;20081;-75
2022/03/27 10:32:11;;;;;;;;;;;;;;;24.97;15.67;93645.41;2051861;69;20047;-75
2022/03/27 10:34:43;;;;;;;;;;;;;;;25.17;14.82;93640.13;2052557;70;20053;-74
2022/03/27 10:37:20;;;;;;;;;;;;;;;23.62;12.75;93635.63;2067923;69;20161;-74
2022/03/27 10:39:49;;;;;;;;;;;;;;;24.48;13.54;93632.81;2055335;70;20085;-73
2022/03/27 10:42:22;;;;;;;;;;;;;;;24.66;13.32;93630.34;2068212;69;20449;-73
2022/03/27 10:45:09;;;;;;;;;;;;;;;24.90;13.27;93624.41;2065453;69;20047;-79
2022/03/27 10:47:36;;;;;;;;;;;;;;;25.30;13.02;93629.59;2055380;69;20080;-77
2022/03/27 10:50:05;;;;;;;;;;;;;;;24.06;13.56;93628.19;2055324;70;20054;-74
2022/03/27 10:52:36;;;;;;;;;;;;;;;24.70;12.42;93613.19;2055176;70;20051;-74
2022/03/27 10:55:15;;;;;;;;;;;;;;;25.41;12.55;93621.88;2068067;69;20054;-73
2022/03/27 10:57:42;;;;;;;;;;;;;;;25.05;13.17;93619.66;2055058;69;20042;-74
2022/03/27 11:00:08;;;;;;;;;;;;;;;27.98;13.07;93620.75;2065070;69;20157;-75
2022/03/27 11:02:49;;;;;;;;;;;;;;;29.00;12.74;93617.97;2055078;70;20115;-75
2022/03/27 11:05:36;;;;;;;;;;;;;;;28.68;12.77;93613.41;2055285;70;20533;-76
2022/03/27 11:08:18;;;;;;;;;;;;;;;29.31;12.40;93608.00;2060303;69;20058;-75
2022/03/27 11:10:49;;;;;;;;;;;;;;;30.50;11.44;93611.97;2055188;70;20050;-76
2022/03/27 11:13:25;;;;;;;;;;;;;;;31.81;10.36;93611.72;2068144;69;20131;-72
2022/03/27 11:16:09;;;;;;;;;;;;;;;33.53;10.54;93600.16;2054758;70;20506;-75
2022/03/27 11:18:35;;;;;;;;;;;;;;;32.98;10.10;93602.91;2065166;69;20046;-72
2022/03/27 11:21:00;;;;;;;;;;;;;;;32.47;10.04;93600.41;2065191;69;20088;-72
2022/03/27 11:23:27;;;;;;;;;;;;;;;32.43;10.44;93594.63;2054967;70;20421;-73
2022/03/27 11:25:53;;;;;;;;;;;;;;;33.27;9.78;93585.84;2068008;69;20632;-72
2022/03/27 11:28:20;;;;;;;;;;;;;;;34.34;10.78;93588.88;2055076;70;20090;-72
2022/03/27 11:30:52;;;;;;;;;;;;;;;35.00;9.00;93594.41;2054688;70;20057;-75
2022/03/27 11:33:20;;;;;;;;;;;;;;;37.17;9.02;93590.50;2054897;70;20038;-73
2022/03/27 11:36:00;;;;;;;;;;;;;;;36.87;8.62;93589.75;2055265;70;20081;-73
2022/03/27 11:38:27;;;;;;;;;;;;;;;35.52;8.70;93589.09;2055476;70;20081;-72
2022/03/27 11:40:55;;;;;;;;;;;;;;;37.04;7.79;93584.22;2055478;70;20057;-74
2022/03/27 11:43:26;;;;;;;;;;;;;;;37.19;8.12;93578.69;2055425;69;20109;-74
2022/03/27 11:45:54;;;;;;;;;;;;;;;37.70;8.06;93578.03;2068318;69;20050;-73
2022/03/27 11:48:19;;;;;;;;;;;;;;;37.62;7.26;93575.34;2055399;70;20054;-73
2022/03/27 11:50:45;;;;;;;;;;;;;;;38.10;7.91;93564.38;2055474;70;20074;-73
2022/03/27 11:53:10;;;;;;;;;;;;;;;36.00;9.07;93558.06;2068533;69;20058;-73
2022/03/27 11:55:37;;;;;;;;;;;;;;;37.14;8.09;93552.38;2055450;70;20058;-73
2022/03/27 11:58:03;;;;;;;;;;;;;;;37.98;7.94;93555.22;2068395;69;20057;-74
2022/03/27 12:00:29;;;;;;;;;;;;;;;39.42;7.50;93549.81;2055172;69;20048;-74
2022/03/27 12:02:55;;;;;;;;;;;;;;;41.54;7.03;93547.34;2055486;70;20093;-76
2022/03/27 12:05:21;;;;;;;;;;;;;;;41.49;6.68;93551.28;2055426;70;20055;-73
2022/03/27 12:07:56;;;;;;;;;;;;;;;38.72;7.48;93535.97;2054942;70;20133;-74
2022/03/27 12:10:23;;;;;;;;;;;;;;;37.98;7.80;93532.41;2055529;69;20066;-74
2022/03/27 12:12:56;;;;;;;;;;;;;;;40.01;6.62;93532.91;2065463;69;20050;-74
2022/03/27 12:15:35;;;;;;;;;;;;;;;36.64;7.17;93522.13;2055333;69;20066;-74
2022/03/27 12:18:02;;;;;;;;;;;;;;;37.04;7.83;93522.59;2068438;69;20043;-74
2022/03/27 12:20:27;;;;;;;;;;;;;;;37.60;7.70;93519.56;2068339;69;20062;-75
2022/03/27 12:22:53;;;;;;;;;;;;;;;37.93;7.22;93522.28;2055464;70;20042;-74
2022/03/27 12:25:19;;;;;;;;;;;;;;;38.39;6.49;93513.53;2055486;70;20055;-77
2022/03/27 12:30:46;;;;;;;;;;;;;;;38.32;7.55;93507.13;2063948;69;20073;-76
2022/03/27 12:33:12;;;;;;;;;;;;;;;38.77;7.05;93514.50;2066236;69;20046;-76
2022/03/27 12:35:38;;;;;;;;;;;;;;;35.38;7.30;93500.03;2068408;69;20061;-75
2022/03/27 12:38:04;;;;;;;;;;;;;;;35.67;7.01;93493.59;2055333;70;20046;-75
2022/03/27 12:40:40;;;;;;;;;;;;;;;35.51;7.67;93493.94;2055297;70;20600;-75
2022/03/27 12:43:13;;;;;;;;;;;;;;;37.01;7.39;93489.66;2068352;69;20100;-75
2022/03/27 12:45:40;;;;;;;;;;;;;;;37.16;7.70;93492.94;2055253;69;20106;-75
2022/03/27 12:48:11;;;;;;;;;;;;;;;38.27;7.88;93494.03;2068061;69;20081;-74
2022/03/27 12:50:38;;;;;;;;;;;;;;;36.31;7.53;93490.66;2068340;69;20058;-74
2022/03/27 12:53:09;;;;;;;;;;;;;;;35.80;7.47;93491.84;2068242;69;20057;-75
2022/03/27 12:55:40;;;;;;;;;;;;;;;38.93;7.21;93480.84;2055267;70;20058;-74
2022/03/27 12:58:06;;;;;;;;;;;;;;;38.15;7.49;93485.59;2068432;69;20104;-75
2022/03/27 13:00:32;;;;;;;;;;;;;;;39.92;7.04;93484.63;2068213;69;20054;-75
2022/03/27 13:03:13;;;;;;;;;;;;;;;40.80;6.38;93487.72;2055258;70;20073;-74
2022/03/27 13:05:40;;;;;;;;;;;;;;;34.18;7.87;93466.41;2065309;69;20518;-73
2022/03/27 13:08:06;;;;;;;;;;;;;;;35.44;7.63;93472.84;2054753;70;20177;-74